Eight Mile, Alabama
Current Conditions -  °F | °C
As of 10:56 AM on Friday 28 Nov 2014 (Local Time) from KMOB Reporting Station
Clear Clear  
Wind Chill: 50°   Ceiling: Unl
Heat Index: 50°   Visibility: 10mi
Dew Point: 28°   Wind: 5mph
Humidity: 43%   Direction: NA
Pressure: 30.43"   Gusts: NA
Location:  30.76°N, 88.13°W
Report Text: KMOB 281656Z VRB04KT 10SM CLR 10/M02 A3043 RMK AO2 SLP302 T01001022
Loading
Personal Weather Stations






























Interactive Weather Map New forecast layout! Learn more

10-Day Weather Forecast

Advertisements
Track Severe Weather on mobile